Time;durP1;ratioP1;P1;durP2;ratioP2;P2;SDS_P1;SDS_P2;PMS_P1;PMS_P2;Temp;Humidity;BMP_temperature;BMP_pressure;BME280_temperature;BME280_humidity;BME280_pressure;Samples;Min_cycle;Max_cycle;Signal;HPM_P1;HPM_P2
2022/08/29 00:01:05;;;;;;;7.82;2.88;;;16.40;99.90;;;;;;5065882;28;25064;-73
2022/08/29 00:03:31;;;;;;;6.05;2.65;;;16.40;99.90;;;;;;5050170;28;25064;-72
2022/08/29 00:05:57;;;;;;;7.40;3.25;;;16.40;99.90;;;;;;5070559;28;25074;-73
2022/08/29 00:08:22;;;;;;;4.57;2.55;;;16.30;99.90;;;;;;5060553;28;25066;-73
2022/08/29 00:10:48;;;;;;;5.57;2.45;;;16.40;99.90;;;;;;5065859;28;25060;-73
2022/08/29 00:13:14;;;;;;;7.43;2.85;;;16.50;99.90;;;;;;5072793;28;25066;-71
2022/08/29 00:15:41;;;;;;;6.25;2.65;;;16.50;99.90;;;;;;5054951;28;25091;-72
2022/08/29 00:18:07;;;;;;;4.75;2.47;;;16.50;99.90;;;;;;5056836;28;25140;-72
2022/08/29 00:20:34;;;;;;;6.53;2.50;;;16.50;99.90;;;;;;5060168;28;25052;-72
2022/08/29 00:23:01;;;;;;;4.50;2.53;;;16.50;99.90;;;;;;5065723;28;25129;-73
2022/08/29 00:25:26;;;;;;;9.52;2.67;;;16.60;99.90;;;;;;5070219;28;25152;-73
2022/08/29 00:27:53;;;;;;;3.10;2.28;;;16.50;99.90;;;;;;5067809;28;25068;-72
2022/08/29 00:30:21;;;;;;;11.20;2.33;;;16.40;99.90;;;;;;5068893;28;25068;-71
2022/08/29 00:32:46;;;;;;;4.60;2.80;;;16.40;99.90;;;;;;5070535;28;25076;-72
2022/08/29 00:35:16;;;;;;;6.70;2.50;;;16.40;99.90;;;;;;5060237;28;25071;-72
2022/08/29 00:37:41;;;;;;;8.55;2.50;;;16.50;99.90;;;;;;5057233;28;25134;-72
2022/08/29 00:40:11;;;;;;;4.63;2.80;;;16.50;99.90;;;;;;5064832;28;25075;-72
2022/08/29 00:42:37;;;;;;;4.55;2.40;;;16.50;99.90;;;;;;5069760;28;25131;-73
2022/08/29 00:45:06;;;;;;;4.30;2.13;;;16.50;99.90;;;;;;5059919;28;25068;-72
2022/08/29 00:47:35;;;;;;;8.52;2.55;;;16.50;99.90;;;;;;5065499;28;25061;-72
2022/08/29 00:50:06;;;;;;;5.07;2.88;;;16.40;99.90;;;;;;5057115;28;25055;-71
2022/08/29 00:52:38;;;;;;;5.22;3.00;;;16.30;99.90;;;;;;5073293;28;25069;-72
2022/08/29 00:55:10;;;;;;;6.55;2.40;;;16.30;99.90;;;;;;5065289;28;25083;-72
2022/08/29 00:57:35;;;;;;;7.40;2.80;;;16.20;99.90;;;;;;5072802;28;25084;-71
2022/08/29 01:00:04;;;;;;;5.10;3.13;;;16.10;99.90;;;;;;5065461;28;25077;-71
2022/08/29 01:02:30;;;;;;;4.57;2.58;;;16.10;99.90;;;;;;5062514;28;25115;-71
2022/08/29 01:04:56;;;;;;;6.10;2.35;;;16.10;99.90;;;;;;5054547;28;25148;-73
2022/08/29 01:07:22;;;;;;;7.47;2.65;;;16.00;99.90;;;;;;5066240;28;25053;-73
2022/08/29 01:09:48;;;;;;;5.03;2.90;;;16.10;99.90;;;;;;5060547;28;25065;-72
2022/08/29 01:12:17;;;;;;;4.32;2.38;;;16.30;99.90;;;;;;5059283;28;25144;-71
2022/08/29 01:14:51;;;;;;;5.70;2.80;;;16.40;99.90;;;;;;5064877;28;25096;-74
2022/08/29 01:17:21;;;;;;;7.40;2.47;;;16.30;99.90;;;;;;5074729;28;25089;-74
2022/08/29 01:19:46;;;;;;;4.03;2.17;;;16.30;99.90;;;;;;5082852;28;25076;-73
2022/08/29 01:22:38;;;;;;;5.22;2.72;;;16.20;99.90;;;;;;5089344;28;25097;-73
2022/08/29 01:25:09;;;;;;;5.88;2.80;;;16.00;99.90;;;;;;5064163;28;25087;-74
2022/08/29 01:27:39;;;;;;;7.03;2.97;;;16.10;99.90;;;;;;5064882;28;25067;-72
2022/08/29 01:30:06;;;;;;;5.78;2.53;;;16.00;99.90;;;;;;5054367;28;25185;-72
2022/08/29 01:32:32;;;;;;;5.75;2.10;;;16.00;99.90;;;;;;5053098;28;25149;-71
2022/08/29 01:34:57;;;;;;;5.00;2.50;;;16.00;99.90;;;;;;5052958;28;25069;-72
2022/08/29 01:37:27;;;;;;;3.78;2.25;;;16.00;99.90;;;;;;5047150;28;25071;-72
2022/08/29 01:39:52;;;;;;;8.55;2.58;;;16.00;99.90;;;;;;5067631;28;25052;-73
2022/08/29 01:42:21;;;;;;;2.38;2.10;;;16.00;99.90;;;;;;5059334;28;25050;-72
2022/08/29 01:44:51;;;;;;;4.00;2.30;;;16.00;99.90;;;;;;5056346;28;25062;-72
2022/08/29 01:47:18;;;;;;;8.15;2.42;;;15.90;99.90;;;;;;5052984;28;25149;-70
2022/08/29 01:49:44;;;;;;;4.55;1.90;;;15.80;99.90;;;;;;5055926;28;25067;-72
2022/08/29 01:52:11;;;;;;;3.08;2.10;;;15.90;99.90;;;;;;5051613;28;25157;-73
2022/08/29 01:54:38;;;;;;;6.20;2.67;;;15.90;99.90;;;;;;5052195;28;25189;-72
2022/08/29 01:57:04;;;;;;;2.97;1.98;;;15.90;99.90;;;;;;5054767;28;25072;-72
2022/08/29 01:59:31;;;;;;;5.97;1.77;;;15.80;99.90;;;;;;5053248;28;25084;-72
2022/08/29 02:02:19;;;;;;;6.55;2.08;;;15.80;99.90;;;;;;5063739;28;24725;-71
2022/08/29 02:04:47;;;;;;;6.32;2.67;;;15.80;99.90;;;;;;5054325;28;25063;-72
2022/08/29 02:07:16;;;;;;;4.05;2.47;;;15.80;99.90;;;;;;5051220;28;25071;-72
2022/08/29 02:09:42;;;;;;;5.90;2.00;;;15.80;99.90;;;;;;5061071;28;25060;-71
2022/08/29 02:12:08;;;;;;;3.47;2.15;;;15.80;99.90;;;;;;5062424;28;25122;-71
2022/08/29 02:14:35;;;;;;;4.50;2.08;;;15.70;99.90;;;;;;5054080;28;25064;-71
2022/08/29 02:17:03;;;;;;;2.92;1.92;;;15.70;99.90;;;;;;5049820;28;25434;-72
2022/08/29 02:19:30;;;;;;;1.98;1.60;;;15.70;99.90;;;;;;5064452;28;25113;-72
2022/08/29 02:21:56;;;;;;;6.70;2.60;;;15.70;99.90;;;;;;5056767;28;25173;-73
2022/08/29 02:24:22;;;;;;;3.97;2.53;;;15.60;99.90;;;;;;5058841;28;25133;-72
2022/08/29 02:26:48;;;;;;;7.57;3.40;;;15.60;99.90;;;;;;5069963;28;25067;-73
2022/08/29 02:29:13;;;;;;;4.10;2.30;;;15.70;99.90;;;;;;5078718;28;25097;-71
2022/08/29 02:31:40;;;;;;;5.85;2.03;;;15.60;99.90;;;;;;5064337;28;25066;-71
2022/08/29 02:34:08;;;;;;;5.80;2.30;;;15.50;99.90;;;;;;5069365;28;25059;-71
2022/08/29 02:36:35;;;;;;;4.60;2.40;;;15.50;99.90;;;;;;5067526;28;25102;-71
2022/08/29 02:39:02;;;;;;;2.95;2.10;;;15.40;99.90;;;;;;5066373;28;25058;-73
2022/08/29 02:41:27;;;;;;;6.68;2.15;;;15.40;99.90;;;;;;5062005;28;25119;-72
2022/08/29 02:43:53;;;;;;;7.45;2.10;;;15.50;99.90;;;;;;5065577;28;25069;-72
2022/08/29 02:46:19;;;;;;;5.28;2.65;;;15.50;99.90;;;;;;5053798;28;25076;-72
2022/08/29 02:48:45;;;;;;;5.88;2.35;;;15.50;99.90;;;;;;5069275;28;25194;-72
2022/08/29 02:51:26;;;;;;;5.75;2.22;;;15.50;99.90;;;;;;5059550;28;25048;-71
2022/08/29 02:53:52;;;;;;;3.25;2.00;;;15.50;99.90;;;;;;5053527;28;25059;-72
2022/08/29 02:56:18;;;;;;;6.60;2.45;;;15.50;99.90;;;;;;5055180;28;25082;-73
2022/08/29 02:58:45;;;;;;;3.70;2.42;;;15.50;99.90;;;;;;5051565;28;25073;-70
2022/08/29 03:01:11;;;;;;;4.70;2.33;;;15.50;99.90;;;;;;5052142;28;25082;-72
2022/08/29 03:03:37;;;;;;;7.43;3.10;;;15.40;99.90;;;;;;5047497;28;25056;-71
2022/08/29 03:06:03;;;;;;;4.38;2.20;;;15.50;99.90;;;;;;5054097;28;25100;-72
2022/08/29 03:08:28;;;;;;;4.88;2.42;;;15.50;99.90;;;;;;5050439;28;25122;-72
2022/08/29 03:10:54;;;;;;;6.55;2.45;;;15.60;99.90;;;;;;5045636;28;25083;-73
2022/08/29 03:13:20;;;;;;;8.02;2.45;;;15.60;99.90;;;;;;5053838;28;25065;-73
2022/08/29 03:15:46;;;;;;;5.35;2.30;;;15.70;99.90;;;;;;5046840;28;25075;-71
2022/08/29 03:18:13;;;;;;;4.07;2.10;;;15.60;99.90;;;;;;5049621;28;25154;-72
2022/08/29 03:20:40;;;;;;;2.63;1.80;;;15.50;99.90;;;;;;5049444;28;25055;-72
2022/08/29 03:23:07;;;;;;;3.92;1.55;;;15.60;99.90;;;;;;5054150;28;25064;-71
2022/08/29 03:25:32;;;;;;;6.35;2.13;;;15.50;99.90;;;;;;5048554;28;25067;-73
2022/08/29 03:27:58;;;;;;;3.92;2.30;;;15.40;99.90;;;;;;5051850;28;25117;-70
2022/08/29 03:30:25;;;;;;;3.92;2.30;;;15.30;99.90;;;;;;5064036;28;25078;-72
2022/08/29 03:32:51;;;;;;;7.00;2.38;;;15.30;99.90;;;;;;5055476;28;25065;-73
2022/08/29 03:35:18;;;;;;;2.83;1.52;;;15.30;99.90;;;;;;5058070;28;25149;-72
2022/08/29 03:37:44;;;;;;;6.28;2.22;;;15.30;99.90;;;;;;5059023;28;25045;-71
2022/08/29 03:40:11;;;;;;;3.85;2.47;;;15.20;99.90;;;;;;5050256;28;25118;-70
2022/08/29 03:42:37;;;;;;;7.72;2.25;;;15.10;99.90;;;;;;5052193;28;25093;-72
2022/08/29 03:45:05;;;;;;;4.30;2.55;;;15.20;99.90;;;;;;5056459;28;25107;-72
2022/08/29 03:47:31;;;;;;;5.57;2.28;;;15.30;99.90;;;;;;5052809;28;25143;-71
2022/08/29 03:49:56;;;;;;;4.50;2.20;;;15.40;99.90;;;;;;5060277;28;25141;-71
2022/08/29 03:52:22;;;;;;;2.97;2.08;;;15.40;99.90;;;;;;5051343;28;25154;-71
2022/08/29 03:54:47;;;;;;;9.15;2.20;;;15.40;99.90;;;;;;5055068;28;25104;-73
2022/08/29 03:57:13;;;;;;;8.75;2.55;;;15.40;99.90;;;;;;5062665;28;25144;-72
2022/08/29 03:59:38;;;;;;;5.82;2.35;;;15.40;99.90;;;;;;5050370;28;25078;-72
2022/08/29 04:02:04;;;;;;;5.05;2.38;;;15.30;99.90;;;;;;5044415;28;25056;-72
2022/08/29 04:07:16;;;;;;;6.20;2.30;;;15.40;99.90;;;;;;5056925;28;25079;-72
2022/08/29 04:09:41;;;;;;;7.50;2.33;;;15.40;99.90;;;;;;5055479;28;25049;-72
2022/08/29 04:12:10;;;;;;;4.60;1.95;;;15.50;99.90;;;;;;5050622;28;25067;-72
2022/08/29 04:14:36;;;;;;;6.25;1.98;;;15.60;99.90;;;;;;5052688;28;25053;-74
2022/08/29 04:17:03;;;;;;;3.22;2.10;;;15.70;99.90;;;;;;5059268;28;25064;-72
2022/08/29 04:19:29;;;;;;;3.65;2.17;;;15.60;99.90;;;;;;5061906;28;25089;-72
2022/08/29 04:21:56;;;;;;;5.55;2.33;;;15.50;99.90;;;;;;5062275;28;25107;-73
2022/08/29 04:24:22;;;;;;;7.38;2.42;;;15.50;99.90;;;;;;5062986;28;25152;-73
2022/08/29 04:26:47;;;;;;;5.53;2.10;;;15.40;99.90;;;;;;5052185;28;25077;-71
2022/08/29 04:29:13;;;;;;;4.70;1.83;;;15.40;99.90;;;;;;5061579;28;25106;-72
2022/08/29 04:31:40;;;;;;;5.50;2.20;;;15.40;99.90;;;;;;5064581;28;25058;-73
2022/08/29 04:34:07;;;;;;;6.38;2.40;;;15.40;99.90;;;;;;5056592;28;25147;-71
2022/08/29 04:36:40;;;;;;;6.00;2.80;;;15.30;99.90;;;;;;5056077;28;25110;-72
2022/08/29 04:39:07;;;;;;;4.88;2.47;;;15.20;99.90;;;;;;5063009;28;25066;-72
2022/08/29 04:41:33;;;;;;;5.18;2.10;;;15.40;99.90;;;;;;5056981;28;25135;-73
2022/08/29 04:43:59;;;;;;;4.60;2.47;;;15.40;99.90;;;;;;5048548;28;25071;-72
2022/08/29 04:46:24;;;;;;;6.63;2.53;;;15.40;99.90;;;;;;5053532;28;25075;-72
2022/08/29 04:48:51;;;;;;;6.22;3.03;;;15.50;99.90;;;;;;5058504;28;25068;-72
2022/08/29 04:51:17;;;;;;;4.20;2.65;;;15.40;99.90;;;;;;5055509;28;25096;-72
2022/08/29 04:53:43;;;;;;;9.63;2.83;;;15.40;99.90;;;;;;5049545;28;25093;-72
2022/08/29 04:56:10;;;;;;;4.93;2.80;;;15.40;99.90;;;;;;5048329;28;25152;-72
2022/08/29 04:58:39;;;;;;;7.38;3.08;;;15.40;99.90;;;;;;5047274;28;25135;-71
2022/08/29 05:01:05;;;;;;;3.95;2.53;;;15.50;99.90;;;;;;5055527;28;25103;-72
2022/08/29 05:03:32;;;;;;;3.67;2.58;;;15.70;99.90;;;;;;5057185;28;25094;-73
2022/08/29 05:06:00;;;;;;;7.10;2.70;;;15.70;99.90;;;;;;5063537;28;25069;-73
2022/08/29 05:08:27;;;;;;;8.82;3.33;;;15.50;99.90;;;;;;5058024;28;25089;-71
2022/08/29 05:10:52;;;;;;;5.80;2.88;;;15.50;99.90;;;;;;5058982;28;25074;-74
2022/08/29 05:13:18;;;;;;;7.47;2.70;;;15.40;99.90;;;;;;5062110;28;25056;-72
2022/08/29 05:15:44;;;;;;;8.48;2.70;;;15.40;99.90;;;;;;5059271;28;25064;-73
2022/08/29 05:18:13;;;;;;;6.30;2.83;;;15.40;99.90;;;;;;5056835;28;25069;-73
2022/08/29 05:20:41;;;;;;;4.90;2.22;;;15.50;99.90;;;;;;5060588;28;25097;-74
2022/08/29 05:23:07;;;;;;;7.57;2.42;;;15.50;99.90;;;;;;5054030;28;25066;-73
2022/08/29 05:25:32;;;;;;;11.23;2.58;;;15.40;99.90;;;;;;5052605;28;25145;-74
2022/08/29 05:27:58;;;;;;;4.43;2.35;;;15.40;99.90;;;;;;5052602;28;25076;-73
2022/08/29 05:30:24;;;;;;;5.28;2.33;;;15.40;99.90;;;;;;5049852;28;25139;-75
2022/08/29 05:32:51;;;;;;;10.18;2.47;;;15.50;99.90;;;;;;5058879;28;25081;-73
2022/08/29 05:35:17;;;;;;;6.30;2.63;;;15.60;99.90;;;;;;5049573;28;25060;-73
2022/08/29 05:37:42;;;;;;;8.65;2.67;;;15.60;99.90;;;;;;5050637;28;25061;-73
2022/08/29 05:40:08;;;;;;;8.30;2.50;;;15.70;99.90;;;;;;5049666;28;25064;-74
2022/08/29 05:42:34;;;;;;;8.07;2.47;;;15.80;99.90;;;;;;5054241;28;25057;-74
2022/08/29 05:44:59;;;;;;;6.65;2.60;;;15.90;99.90;;;;;;5054533;28;25062;-74
2022/08/29 05:47:25;;;;;;;7.18;2.80;;;16.00;99.90;;;;;;5051028;28;25062;-74
2022/08/29 05:49:50;;;;;;;9.98;2.85;;;15.90;99.90;;;;;;5054878;28;25148;-73
2022/08/29 05:52:18;;;;;;;7.90;2.83;;;16.00;99.90;;;;;;5055322;28;25128;-74
2022/08/29 05:54:45;;;;;;;6.30;3.20;;;15.90;99.90;;;;;;5054024;28;25055;-73
2022/08/29 05:57:13;;;;;;;6.07;2.47;;;15.80;99.90;;;;;;5061700;28;25156;-74
2022/08/29 05:59:39;;;;;;;4.95;2.90;;;15.70;99.90;;;;;;5054785;28;25054;-74
2022/08/29 06:02:07;;;;;;;6.72;2.65;;;15.90;99.90;;;;;;5052523;28;25087;-74
2022/08/29 06:04:32;;;;;;;4.00;2.20;;;16.00;99.90;;;;;;5056891;28;25075;-73
2022/08/29 06:06:58;;;;;;;9.80;3.30;;;16.20;99.90;;;;;;5069486;28;25175;-74
2022/08/29 06:09:24;;;;;;;8.90;2.95;;;16.40;99.90;;;;;;5057741;28;25096;-73
2022/08/29 06:11:56;;;;;;;9.45;2.70;;;16.40;99.90;;;;;;5064103;28;25071;-73
2022/08/29 06:14:22;;;;;;;5.10;2.70;;;16.60;99.90;;;;;;5058096;28;25069;-73
2022/08/29 06:16:47;;;;;;;5.40;2.45;;;16.70;99.90;;;;;;5052817;28;25071;-73
2022/08/29 06:19:13;;;;;;;7.55;3.10;;;16.80;99.90;;;;;;5058094;28;25173;-74
2022/08/29 06:21:39;;;;;;;5.80;2.30;;;17.00;99.90;;;;;;5064090;28;25093;-73
2022/08/29 06:24:05;;;;;;;10.30;2.63;;;17.00;99.90;;;;;;5059733;28;25136;-73
2022/08/29 06:26:30;;;;;;;7.15;2.83;;;16.90;99.90;;;;;;5068166;28;25056;-74
2022/08/29 06:28:56;;;;;;;6.63;2.78;;;16.60;99.90;;;;;;5070328;28;25105;-74
2022/08/29 06:31:26;;;;;;;9.18;2.90;;;16.80;99.90;;;;;;5069767;28;25066;-73
2022/08/29 06:33:54;;;;;;;4.45;2.70;;;17.10;99.90;;;;;;5061089;28;25078;-73
2022/08/29 06:36:20;;;;;;;4.18;2.83;;;17.00;99.90;;;;;;5057445;28;25079;-74
2022/08/29 06:38:46;;;;;;;7.93;2.55;;;16.90;99.90;;;;;;5070864;28;25073;-74
2022/08/29 06:41:14;;;;;;;8.82;3.15;;;16.90;99.90;;;;;;5066726;28;25059;-74
2022/08/29 06:43:40;;;;;;;7.47;4.00;;;16.80;99.90;;;;;;5068466;28;25056;-74
2022/08/29 06:46:07;;;;;;;7.50;3.17;;;16.80;99.90;;;;;;5051597;28;25142;-74
2022/08/29 06:48:33;;;;;;;6.05;2.97;;;16.80;99.90;;;;;;5058236;28;25080;-73
2022/08/29 06:51:00;;;;;;;7.95;3.65;;;17.00;99.90;;;;;;5048357;28;25048;-73
2022/08/29 06:53:27;;;;;;;5.80;2.90;;;17.00;99.90;;;;;;5049230;28;25107;-73
2022/08/29 06:55:53;;;;;;;7.50;3.13;;;16.90;99.90;;;;;;5060878;28;25134;-74
2022/08/29 06:58:19;;;;;;;6.97;2.72;;;16.90;99.90;;;;;;5049946;28;25059;-73
2022/08/29 07:00:45;;;;;;;5.45;2.72;;;17.10;99.90;;;;;;5058084;28;25055;-73
2022/08/29 07:03:11;;;;;;;7.43;3.33;;;17.40;99.90;;;;;;5061207;28;25104;-73
2022/08/29 07:05:37;;;;;;;12.00;3.83;;;17.40;99.90;;;;;;5047851;28;25052;-73
2022/08/29 07:08:02;;;;;;;10.38;3.38;;;17.60;99.90;;;;;;5063455;28;25062;-74
2022/08/29 07:10:28;;;;;;;7.60;3.00;;;17.70;99.90;;;;;;5050165;28;25083;-73
2022/08/29 07:12:54;;;;;;;9.43;4.03;;;17.60;99.90;;;;;;5063361;28;25097;-73
2022/08/29 07:15:21;;;;;;;7.25;3.33;;;17.50;99.90;;;;;;5053661;28;25107;-74
2022/08/29 07:17:48;;;;;;;11.65;3.47;;;17.60;99.90;;;;;;5058701;28;25068;-74
2022/08/29 07:20:14;;;;;;;6.45;3.50;;;17.60;99.90;;;;;;5053540;28;25146;-74
2022/08/29 07:22:40;;;;;;;7.05;3.40;;;17.70;99.90;;;;;;5049020;28;25075;-73
2022/08/29 07:25:06;;;;;;;6.13;2.80;;;17.70;99.90;;;;;;5047451;28;25149;-73
2022/08/29 07:27:33;;;;;;;14.95;3.92;;;17.80;99.90;;;;;;5056335;28;25066;-75
2022/08/29 07:30:01;;;;;;;11.70;4.07;;;17.70;99.90;;;;;;5051174;28;25165;-73
2022/08/29 07:32:27;;;;;;;11.15;3.70;;;17.70;99.90;;;;;;5052272;28;25057;-75
2022/08/29 07:34:52;;;;;;;6.40;3.63;;;17.80;99.90;;;;;;5051649;28;25071;-75
2022/08/29 07:37:19;;;;;;;8.90;3.78;;;17.90;99.90;;;;;;5054868;28;25048;-74
2022/08/29 07:39:44;;;;;;;9.55;3.72;;;17.80;99.90;;;;;;5045754;28;25050;-74
2022/08/29 07:42:10;;;;;;;9.05;4.03;;;17.90;99.90;;;;;;5052134;28;25072;-74
2022/08/29 07:44:35;;;;;;;8.98;3.30;;;18.00;99.90;;;;;;5052361;28;25068;-74
2022/08/29 07:47:01;;;;;;;9.02;3.60;;;18.10;99.90;;;;;;5046513;28;25109;-75
2022/08/29 07:49:30;;;;;;;12.15;3.88;;;18.30;99.90;;;;;;5054000;28;25055;-75
2022/08/29 07:51:56;;;;;;;7.38;3.20;;;18.50;99.90;;;;;;5052657;28;25147;-74
2022/08/29 07:54:22;;;;;;;6.15;3.25;;;18.40;99.90;;;;;;5051277;28;25081;-74
2022/08/29 07:56:49;;;;;;;7.68;3.38;;;18.60;99.90;;;;;;5057129;28;25063;-74
2022/08/29 07:59:16;;;;;;;6.60;3.15;;;18.80;99.90;;;;;;5053803;28;25099;-76
2022/08/29 08:01:43;;;;;;;9.48;3.65;;;18.80;99.90;;;;;;5061234;28;25059;-74
2022/08/29 08:04:09;;;;;;;5.85;3.40;;;18.50;99.90;;;;;;5056880;28;25094;-75
2022/08/29 08:06:35;;;;;;;4.80;2.70;;;18.60;99.90;;;;;;5051328;28;25128;-74
2022/08/29 08:09:02;;;;;;;6.32;3.05;;;18.40;99.90;;;;;;5059830;28;25139;-75
2022/08/29 08:11:28;;;;;;;5.38;2.90;;;18.50;99.90;;;;;;5062553;28;25067;-75
2022/08/29 08:13:54;;;;;;;6.68;2.80;;;18.70;99.90;;;;;;5053856;28;25073;-74
2022/08/29 08:16:22;;;;;;;5.22;3.08;;;18.80;99.90;;;;;;5052755;28;25083;-75
2022/08/29 08:18:49;;;;;;;8.65;3.30;;;18.70;99.90;;;;;;5064712;28;25114;-75
2022/08/29 08:21:14;;;;;;;10.43;4.13;;;18.50;99.90;;;;;;5065796;28;25049;-75
2022/08/29 08:23:40;;;;;;;7.47;2.90;;;18.40;99.90;;;;;;5068552;28;25074;-76
2022/08/29 08:26:08;;;;;;;10.90;3.17;;;18.40;99.90;;;;;;5055493;28;25089;-75
2022/08/29 08:28:34;;;;;;;7.22;2.92;;;18.50;99.90;;;;;;5065369;28;25073;-72
2022/08/29 08:31:02;;;;;;;8.82;2.70;;;18.60;99.90;;;;;;5066050;28;25142;-74
2022/08/29 08:33:28;;;;;;;4.97;2.60;;;18.80;99.90;;;;;;5068391;28;25056;-75
2022/08/29 08:35:54;;;;;;;6.75;3.08;;;18.70;99.90;;;;;;5067236;28;25157;-74
2022/08/29 08:38:20;;;;;;;9.93;2.55;;;18.60;99.90;;;;;;5065949;28;25136;-75
2022/08/29 08:40:55;;;;;;;7.80;2.83;;;18.60;99.90;;;;;;5059134;28;25065;-75
2022/08/29 08:43:27;;;;;;;9.18;3.22;;;18.40;99.90;;;;;;5064577;28;25084;-75
2022/08/29 08:45:54;;;;;;;6.30;2.85;;;18.50;99.90;;;;;;5065182;28;25099;-76
2022/08/29 08:48:27;;;;;;;6.75;2.47;;;19.00;99.90;;;;;;5072456;28;25141;-75
2022/08/29 08:50:53;;;;;;;5.63;3.00;;;19.50;99.90;;;;;;5061451;28;25065;-75
2022/08/29 08:53:33;;;;;;;3.97;2.55;;;19.80;99.90;;;;;;5071097;28;25081;-75
2022/08/29 08:56:06;;;;;;;5.57;2.58;;;20.10;99.90;;;;;;5060494;28;25056;-75
2022/08/29 08:58:41;;;;;;;5.25;2.65;;;20.50;99.90;;;;;;5061345;28;25070;-76
2022/08/29 09:01:13;;;;;;;9.88;2.97;;;20.90;99.90;;;;;;5065227;28;25094;-76
2022/08/29 09:03:50;;;;;;;;;;;20.80;99.90;;;;;;5056055;28;25573;-76
2022/08/29 09:06:31;;;;;;;7.88;2.38;;;20.30;99.90;;;;;;5075314;28;24066;-74
2022/08/29 09:09:04;;;;;;;6.18;3.03;;;20.10;99.90;;;;;;5080877;28;25051;-75
2022/08/29 09:11:53;;;;;;;9.35;3.17;;;20.10;99.90;;;;;;5083064;28;25064;-76
2022/08/29 09:14:43;;;;;;;7.20;3.00;;;20.50;99.90;;;;;;5096680;28;25063;-75
2022/08/29 09:17:22;;;;;;;7.70;2.60;;;21.00;99.90;;;;;;5073654;28;25106;-78
2022/08/29 09:19:50;;;;;;;3.88;2.15;;;21.00;99.90;;;;;;5067134;28;25082;-77
2022/08/29 09:22:23;;;;;;;7.13;2.30;;;20.50;99.90;;;;;;5066362;28;25076;-77
2022/08/29 09:24:55;;;;;;;5.15;2.42;;;20.50;99.90;;;;;;5052914;28;25077;-76
2022/08/29 09:27:26;;;;;;;4.13;1.77;;;20.40;99.90;;;;;;5070414;28;25059;-76
2022/08/29 09:30:01;;;;;;;2.50;1.77;;;20.10;99.90;;;;;;5049157;28;25058;-77
2022/08/29 09:32:26;;;;;;;7.78;2.08;;;19.80;99.90;;;;;;5054837;28;25082;-76
2022/08/29 09:34:52;;;;;;;5.85;2.40;;;19.60;99.90;;;;;;5057049;28;25058;-76
2022/08/29 09:37:33;;;;;;;11.65;2.28;;;19.90;99.90;;;;;;5062016;28;25079;-76
2022/08/29 09:40:00;;;;;;;3.70;1.90;;;20.00;99.90;;;;;;5053687;28;25065;-77
2022/08/29 09:42:35;;;;;;;3.58;1.90;;;20.10;99.90;;;;;;5054199;28;25075;-77
2022/08/29 09:45:17;;;;;;;3.72;1.80;;;20.10;99.90;;;;;;5062131;28;25055;-77
2022/08/29 09:47:44;;;;;;;8.40;2.00;;;19.90;99.90;;;;;;5061762;28;25094;-77
2022/08/29 09:50:23;;;;;;;5.22;1.83;;;19.60;99.90;;;;;;5058127;28;25138;-78
2022/08/29 09:52:58;;;;;;;3.40;2.10;;;19.30;99.90;;;;;;5056404;28;25073;-76
2022/08/29 09:55:30;;;;;;;3.95;1.85;;;19.50;99.90;;;;;;5052606;28;25093;-77
2022/08/29 09:58:00;;;;;;;4.57;1.60;;;19.30;99.90;;;;;;5073407;28;25127;-77
2022/08/29 10:00:38;;;;;;;3.67;1.80;;;19.30;99.90;;;;;;5070635;28;25057;-76
2022/08/29 10:03:09;;;;;;;6.45;1.77;;;19.40;99.90;;;;;;5066968;28;25117;-78
2022/08/29 10:05:40;;;;;;;4.25;1.98;;;19.50;99.90;;;;;;5067220;28;25049;-76
2022/08/29 10:08:21;;;;;;;5.65;2.60;;;19.70;99.90;;;;;;5055666;28;25104;-76
2022/08/29 10:10:55;;;;;;;5.20;1.80;;;20.00;99.90;;;;;;5051845;28;25113;-76
2022/08/29 10:13:42;;;;;;;5.53;1.85;;;19.90;99.90;;;;;;5059930;28;25086;-76
2022/08/29 10:16:21;;;;;;;5.82;2.17;;;19.40;99.90;;;;;;5052682;28;25130;-77
2022/08/29 10:18:52;;;;;;;5.13;2.08;;;19.60;99.90;;;;;;5060662;28;25060;-77
2022/08/29 10:21:17;;;;;;;6.03;2.35;;;20.30;99.90;;;;;;5063207;28;25064;-75
2022/08/29 10:24:11;;;;;;;7.65;2.08;;;20.40;99.90;;;;;;5050889;28;25077;-77
2022/08/29 10:26:37;;;;;;;8.13;2.00;;;20.30;99.90;;;;;;5065022;28;25109;-77
2022/08/29 10:29:14;;;;;;;5.30;2.17;;;20.10;99.90;;;;;;5056564;28;25155;-76
2022/08/29 10:31:54;;;;;;;6.78;2.30;;;19.80;99.90;;;;;;5056459;28;25134;-76
2022/08/29 10:34:55;;;;;;;5.82;2.67;;;19.50;99.90;;;;;;5059131;28;25132;-78
2022/08/29 10:37:32;;;;;;;4.95;2.75;;;19.70;99.90;;;;;;5057743;28;25048;-77
2022/08/29 10:40:04;;;;;;;5.22;2.35;;;19.70;99.90;;;;;;5062462;28;25053;-75
2022/08/29 10:42:35;;;;;;;8.20;2.63;;;19.60;99.90;;;;;;5060959;28;25099;-76
2022/08/29 10:45:12;;;;;;;6.00;2.30;;;19.60;99.90;;;;;;5062719;28;25053;-76
2022/08/29 10:47:45;;;;;;;3.85;2.00;;;19.70;99.90;;;;;;5064389;28;25064;-77
2022/08/29 10:50:19;;;;;;;3.90;2.05;;;19.70;99.90;;;;;;5060920;28;25077;-76
2022/08/29 10:53:00;;;;;;;4.43;2.10;;;19.80;99.90;;;;;;5058855;28;25075;-76
2022/08/29 10:56:06;;;;;;;3.40;2.25;;;20.00;99.90;;;;;;5053242;28;25066;-74
2022/08/29 10:58:55;;;;;;;5.25;2.28;;;19.80;99.90;;;;;;5036219;28;25113;-76
2022/08/29 11:01:29;;;;;;;5.13;2.40;;;19.60;99.90;;;;;;5054829;28;25096;-77
2022/08/29 11:04:08;;;;;;;3.65;2.38;;;19.60;99.90;;;;;;5063499;28;25064;-76
2022/08/29 11:06:43;;;;;;;5.32;2.20;;;19.60;99.90;;;;;;5058473;28;25061;-78
2022/08/29 11:09:19;;;;;;;4.05;2.08;;;19.60;99.90;;;;;;5056657;28;25107;-78
2022/08/29 11:11:56;;;;;;;4.82;2.05;;;19.60;99.90;;;;;;5050165;28;25055;-77
2022/08/29 11:14:29;;;;;;;3.55;2.15;;;19.90;99.90;;;;;;5049019;28;25089;-76
2022/08/29 11:16:57;;;;;;;6.70;2.38;;;20.30;99.90;;;;;;5050626;28;25101;-79
2022/08/29 11:19:58;;;;;;;4.25;2.38;;;20.40;99.90;;;;;;5052318;28;25175;-78
2022/08/29 11:22:34;;;;;;;5.70;2.35;;;20.40;99.90;;;;;;5046052;28;25118;-77
2022/08/29 11:25:20;;;;;;;3.75;2.03;;;20.80;99.90;;;;;;5047579;28;25094;-76
2022/08/29 11:28:15;;;;;;;7.10;2.30;;;21.70;99.90;;;;;;5046762;28;25076;-77
2022/08/29 11:30:48;;;;;;;4.15;2.22;;;21.60;99.30;;;;;;5049815;28;25071;-75
2022/08/29 11:33:26;;;;;;;3.30;1.95;;;20.80;95.50;;;;;;5067692;28;25111;-76
2022/08/29 11:36:11;;;;;;;7.43;2.42;;;21.30;95.80;;;;;;5068472;28;25076;-75
2022/08/29 11:39:06;;;;;;;2.72;1.90;;;22.40;87.40;;;;;;5058932;28;25085;-77
2022/08/29 11:41:37;;;;;;;5.43;1.90;;;23.20;73.70;;;;;;5068555;28;25107;-76
2022/08/29 11:44:25;;;;;;;5.15;1.95;;;23.60;55.30;;;;;;5069226;28;25065;-78
2022/08/29 11:46:51;;;;;;;4.47;1.70;;;23.70;46.60;;;;;;5066307;28;25126;-77
2022/08/29 11:49:44;;;;;;;5.82;2.75;;;22.90;41.80;;;;;;5062325;28;25075;-79
2022/08/29 11:52:10;;;;;;;6.20;1.95;;;22.30;44.10;;;;;;5069531;28;25091;-77
2022/08/29 11:54:38;;;;;;;6.30;1.90;;;22.40;42.60;;;;;;5073233;28;25104;-76
2022/08/29 11:57:04;;;;;;;7.10;2.78;;;22.60;52.40;;;;;;5053881;28;25058;-76
2022/08/29 11:59:54;;;;;;;3.95;2.45;;;22.70;48.40;;;;;;5077648;28;25065;-76
2022/08/29 12:02:29;;;;;;;7.55;2.28;;;22.00;48.70;;;;;;5061846;28;25052;-77
2022/08/29 12:05:13;;;;;;;6.03;2.15;;;21.90;60.80;;;;;;5073572;28;25069;-76
2022/08/29 12:08:00;;;;;;;4.60;2.35;;;21.50;58.80;;;;;;5063428;28;25067;-76
2022/08/29 12:10:53;;;;;;;5.63;2.15;;;22.20;60.20;;;;;;5073322;28;25081;-79
2022/08/29 12:13:37;;;;;;;;;;;22.90;49.60;;;;;;5078229;28;25092;-79
2022/08/29 12:16:10;;;;;;;4.25;1.90;;;23.40;43.00;;;;;;5067110;28;25051;-75
2022/08/29 12:18:43;;;;;;;4.15;2.15;;;23.00;38.50;;;;;;5062737;28;25167;-77
2022/08/29 12:21:47;;;;;;;11.50;3.33;;;23.00;46.20;;;;;;5074423;28;25060;-77
2022/08/29 12:24:29;;;;;;;3.97;2.22;;;22.60;49.00;;;;;;5024129;28;25100;-78
2022/08/29 12:26:55;;;;;;;5.37;2.50;;;22.60;45.50;;;;;;5039940;28;25057;-75
2022/08/29 12:29:32;;;;;;;5.45;2.33;;;22.90;50.10;;;;;;5067688;28;25105;-77
2022/08/29 12:32:19;;;;;;;3.83;2.03;;;23.10;50.60;;;;;;5069014;28;25075;-76
2022/08/29 12:34:53;;;;;;;5.38;2.40;;;23.30;44.20;;;;;;5068813;28;25126;-77
2022/08/29 12:37:41;;;;;;;3.83;1.83;;;23.20;43.50;;;;;;5070932;28;25072;-76
2022/08/29 12:40:34;;;;;;;3.97;2.10;;;22.80;40.70;;;;;;5064025;28;25053;-78
2022/08/29 12:43:24;;;;;;;6.85;2.35;;;22.50;42.40;;;;;;5066600;28;25055;-76
2022/08/29 12:45:50;;;;;;;7.10;2.20;;;22.30;46.70;;;;;;5069642;28;25066;-75
2022/08/29 12:48:32;;;;;;;7.32;2.50;;;22.40;48.60;;;;;;5067154;28;25064;-77
2022/08/29 12:50:58;;;;;;;7.35;2.08;;;21.60;56.20;;;;;;5066427;28;25063;-75
2022/08/29 12:53:32;;;;;;;5.57;2.88;;;21.50;64.40;;;;;;5065323;28;25054;-77
2022/08/29 12:56:18;;;;;;;5.60;2.08;;;21.60;69.30;;;;;;5070658;28;25063;-79
2022/08/29 12:59:04;;;;;;;4.70;2.33;;;21.40;63.80;;;;;;5063504;28;25055;-76
2022/08/29 13:01:36;;;;;;;6.38;2.17;;;21.80;62.00;;;;;;5059557;28;25055;-75
2022/08/29 13:04:12;;;;;;;7.40;2.50;;;21.80;64.80;;;;;;5067205;28;25074;-76
2022/08/29 13:07:00;;;;;;;4.93;2.50;;;22.10;68.00;;;;;;5060864;28;25154;-77